createdAt,value
2023-05-12T00:01:02.934Z,6.30
2023-05-12T00:03:29.916Z,6.30
2023-05-12T00:05:56.807Z,6.20
2023-05-12T00:08:23.606Z,5.90
2023-05-12T00:10:51.889Z,5.80
2023-05-12T00:13:18.910Z,5.60
2023-05-12T00:15:45.723Z,6.10
2023-05-12T00:18:12.692Z,6.10
2023-05-12T00:20:39.601Z,5.00
2023-05-12T00:23:06.412Z,5.80
2023-05-12T00:25:33.875Z,5.70
2023-05-12T00:28:00.687Z,5.70
2023-05-12T00:30:27.871Z,5.70
2023-05-12T00:32:55.191Z,6.40
2023-05-12T00:35:22.124Z,6.70
2023-05-12T00:37:48.885Z,5.90
2023-05-12T00:40:15.828Z,5.20
2023-05-12T00:42:43.659Z,5.80
2023-05-12T00:45:10.897Z,5.70
2023-05-12T00:47:37.739Z,5.90
2023-05-12T00:50:04.938Z,5.50
2023-05-12T00:52:31.842Z,5.50
2023-05-12T00:54:59.381Z,5.80
2023-05-12T00:57:27.957Z,5.90
2023-05-12T00:59:56.011Z,5.50
2023-05-12T01:02:23.178Z,6.10
2023-05-12T01:04:51.589Z,5.60
2023-05-12T01:07:21.036Z,6.10
2023-05-12T01:09:48.338Z,5.20
2023-05-12T01:12:15.511Z,5.50
2023-05-12T01:14:43.045Z,5.80
2023-05-12T01:17:13.317Z,5.60
2023-05-12T01:19:49.396Z,5.80
2023-05-12T01:22:16.968Z,5.60
2023-05-12T01:24:52.897Z,5.70
2023-05-12T01:27:19.824Z,6.40
2023-05-12T01:29:47.193Z,6.00
2023-05-12T01:32:15.899Z,6.40
2023-05-12T01:34:43.247Z,5.80
2023-05-12T01:37:10.694Z,6.30
2023-05-12T01:39:37.833Z,5.90
2023-05-12T01:42:05.665Z,5.80
2023-05-12T01:44:32.657Z,5.70
2023-05-12T01:46:59.490Z,5.70
2023-05-12T01:49:26.844Z,6.20
2023-05-12T01:51:53.604Z,6.10
2023-05-12T01:54:25.687Z,6.70
2023-05-12T01:56:52.473Z,6.30
2023-05-12T01:59:19.303Z,6.00
2023-05-12T02:01:46.256Z,6.00
2023-05-12T02:04:14.392Z,6.10
2023-05-12T02:06:42.469Z,6.30
2023-05-12T02:09:09.216Z,5.60
2023-05-12T02:11:36.819Z,6.30
2023-05-12T02:14:04.040Z,5.90
2023-05-12T02:16:30.989Z,5.40
2023-05-12T02:18:57.868Z,5.40
2023-05-12T02:21:24.739Z,6.20
2023-05-12T02:23:51.628Z,6.20
2023-05-12T02:26:19.595Z,5.80
2023-05-12T02:28:46.448Z,6.10
2023-05-12T02:31:13.249Z,6.50
2023-05-12T02:33:40.080Z,6.00
2023-05-12T02:36:07.316Z,6.50
2023-05-12T02:38:34.166Z,5.80
2023-05-12T02:41:01.722Z,6.20
2023-05-12T02:43:28.678Z,6.50
2023-05-12T02:45:55.510Z,6.30
2023-05-12T02:48:22.400Z,5.80
2023-05-12T02:50:49.194Z,6.20
2023-05-12T02:53:16.016Z,6.40
2023-05-12T02:55:42.959Z,6.60
2023-05-12T02:58:10.442Z,7.30
2023-05-12T03:00:37.177Z,7.00
2023-05-12T03:03:04.220Z,6.40
2023-05-12T03:05:31.339Z,6.60
2023-05-12T03:07:59.088Z,6.20
2023-05-12T03:10:25.911Z,6.20
2023-05-12T03:12:52.968Z,6.30
2023-05-12T03:15:20.293Z,7.20
2023-05-12T03:17:47.224Z,6.80
2023-05-12T03:20:14.379Z,6.70
2023-05-12T03:22:43.237Z,7.10
2023-05-12T03:25:10.883Z,7.30
2023-05-12T03:27:37.792Z,6.30
2023-05-12T03:30:07.984Z,6.70
2023-05-12T03:32:39.207Z,7.20
2023-05-12T03:35:08.468Z,6.60
2023-05-12T03:37:35.381Z,6.60
2023-05-12T03:40:02.303Z,7.00
2023-05-12T03:42:30.316Z,6.30
2023-05-12T03:44:57.063Z,6.70
2023-05-12T03:47:24.057Z,7.30
2023-05-12T03:49:51.129Z,7.50
2023-05-12T03:52:17.921Z,6.80
2023-05-12T03:54:45.100Z,7.00
2023-05-12T03:57:12.697Z,6.50
2023-05-12T03:59:39.473Z,6.50
2023-05-12T04:02:07.850Z,6.30
2023-05-12T04:04:34.780Z,6.80
2023-05-12T04:07:02.091Z,6.70
2023-05-12T04:09:31.441Z,7.30
2023-05-12T04:11:58.954Z,6.30
2023-05-12T04:14:35.206Z,6.60
2023-05-12T04:17:06.282Z,6.80
2023-05-12T04:19:33.510Z,7.10
2023-05-12T04:22:00.356Z,7.00
2023-05-12T04:24:28.013Z,6.40
2023-05-12T04:26:54.827Z,6.40
2023-05-12T04:29:21.708Z,6.50
2023-05-12T04:31:48.732Z,7.20
2023-05-12T04:34:15.633Z,6.40
2023-05-12T04:36:42.399Z,6.10
2023-05-12T04:39:09.706Z,6.80
2023-05-12T04:41:36.874Z,6.60
2023-05-12T04:44:03.746Z,6.50
2023-05-12T04:46:30.988Z,6.70
2023-05-12T04:48:57.862Z,6.60
2023-05-12T04:51:24.871Z,6.90
2023-05-12T04:53:51.790Z,7.80
2023-05-12T04:56:19.213Z,7.20
2023-05-12T04:58:46.471Z,7.90
2023-05-12T05:01:13.800Z,7.60
2023-05-12T05:03:41.254Z,7.70
2023-05-12T05:06:08.506Z,6.90
2023-05-12T05:08:35.452Z,6.60
2023-05-12T05:11:03.300Z,6.30
2023-05-12T05:13:31.379Z,7.30
2023-05-12T05:15:58.291Z,7.00
2023-05-12T05:18:25.724Z,6.50
2023-05-12T05:23:24.602Z,6.10
2023-05-12T05:25:51.617Z,6.40
2023-05-12T05:28:18.405Z,6.60
2023-05-12T05:30:45.325Z,6.40
2023-05-12T05:33:13.364Z,5.40
2023-05-12T05:35:40.350Z,6.80
2023-05-12T05:38:07.154Z,6.10
2023-05-12T05:40:44.990Z,6.20
2023-05-12T05:43:18.801Z,6.30
2023-05-12T05:45:45.638Z,6.30
2023-05-12T05:48:12.737Z,5.10
2023-05-12T05:50:39.619Z,5.50
2023-05-12T05:53:06.790Z,6.00
2023-05-12T05:55:33.767Z,5.50
2023-05-12T05:58:01.141Z,6.10
2023-05-12T06:00:28.054Z,6.20
2023-05-12T06:02:55.730Z,6.30
2023-05-12T06:05:22.953Z,5.60
2023-05-12T06:07:49.978Z,6.00
2023-05-12T06:10:16.817Z,4.70
2023-05-12T06:12:45.198Z,5.50
2023-05-12T06:15:12.250Z,5.00
2023-05-12T06:17:39.588Z,5.50
2023-05-12T06:20:07.468Z,6.20
2023-05-12T06:22:34.856Z,5.10
2023-05-12T06:25:02.058Z,5.00
2023-05-12T06:27:28.809Z,4.60
2023-05-12T06:29:55.793Z,4.80
2023-05-12T06:32:22.576Z,4.70
2023-05-12T06:34:49.782Z,4.30
2023-05-12T06:37:16.978Z,5.40
2023-05-12T06:39:43.823Z,5.90
2023-05-12T06:42:11.681Z,5.30
2023-05-12T06:44:42.505Z,4.50
2023-05-12T06:47:09.720Z,5.20
2023-05-12T06:49:38.108Z,5.10
2023-05-12T06:52:06.751Z,6.10
2023-05-12T06:54:33.806Z,4.80
2023-05-12T06:57:00.854Z,4.90
2023-05-12T06:59:27.678Z,5.00
2023-05-12T07:01:54.423Z,4.90
2023-05-12T07:04:21.756Z,4.10
2023-05-12T07:06:48.528Z,4.00
2023-05-12T07:09:15.320Z,3.60
2023-05-12T07:11:42.186Z,3.40
2023-05-12T07:14:08.931Z,3.90
2023-05-12T07:16:36.413Z,3.80
2023-05-12T07:19:03.332Z,3.90
2023-05-12T07:21:30.757Z,3.90
2023-05-12T07:23:57.674Z,3.10
2023-05-12T07:26:24.474Z,3.30
2023-05-12T07:28:51.378Z,2.80
2023-05-12T07:31:18.203Z,3.20
2023-05-12T07:33:45.012Z,3.10
2023-05-12T07:36:11.784Z,3.00
2023-05-12T07:38:38.560Z,3.10
2023-05-12T07:41:05.376Z,3.10
2023-05-12T07:43:32.127Z,2.60
2023-05-12T07:46:01.141Z,3.30
2023-05-12T07:48:28.030Z,2.90
2023-05-12T07:50:55.085Z,3.20
2023-05-12T07:53:21.882Z,3.10
2023-05-12T07:55:48.712Z,3.50
2023-05-12T07:58:15.631Z,3.30
2023-05-12T08:00:42.568Z,3.70
2023-05-12T08:03:09.458Z,2.90
2023-05-12T08:05:36.625Z,2.60
2023-05-12T08:08:03.498Z,3.00
2023-05-12T08:10:32.677Z,2.90
2023-05-12T08:12:59.414Z,3.50
2023-05-12T08:15:26.257Z,3.10
2023-05-12T08:17:53.104Z,2.80
2023-05-12T08:20:20.349Z,2.60
2023-05-12T08:22:47.943Z,3.00
2023-05-12T08:25:14.909Z,3.00
2023-05-12T08:27:42.032Z,3.00
2023-05-12T08:30:09.823Z,2.50
2023-05-12T08:32:36.889Z,3.00
2023-05-12T08:35:03.928Z,2.90
2023-05-12T08:37:33.029Z,3.40
2023-05-12T08:40:01.306Z,2.60
2023-05-12T08:42:37.366Z,3.00
2023-05-12T08:45:04.526Z,2.60
2023-05-12T08:47:33.285Z,2.70
2023-05-12T08:50:02.172Z,3.40
2023-05-12T08:52:33.438Z,3.30
2023-05-12T08:55:01.020Z,3.30
2023-05-12T08:57:29.858Z,3.10
2023-05-12T08:59:57.509Z,3.30
2023-05-12T09:02:24.688Z,3.10
2023-05-12T09:04:52.200Z,3.20
2023-05-12T09:07:19.805Z,2.90
2023-05-12T09:09:48.809Z,3.30
2023-05-12T09:12:17.011Z,3.00
2023-05-12T09:14:45.217Z,2.80
2023-05-12T09:17:12.764Z,3.00
2023-05-12T09:19:39.590Z,3.10
2023-05-12T09:22:06.400Z,2.90
2023-05-12T09:24:40.047Z,2.70
2023-05-12T09:27:07.316Z,3.20
2023-05-12T09:29:37.458Z,2.80
2023-05-12T09:32:12.162Z,2.80
2023-05-12T09:34:41.602Z,2.90
2023-05-12T09:37:08.651Z,3.40
2023-05-12T09:39:36.505Z,2.90
2023-05-12T09:42:03.456Z,2.70
2023-05-12T09:44:31.675Z,2.90
2023-05-12T09:47:07.169Z,3.10
2023-05-12T09:49:34.153Z,2.90
2023-05-12T09:52:01.314Z,3.10
2023-05-12T09:54:30.642Z,3.30
2023-05-12T09:57:02.496Z,2.70
2023-05-12T09:59:33.964Z,2.90
2023-05-12T10:02:01.681Z,2.80
2023-05-12T10:04:39.521Z,3.00
2023-05-12T10:07:08.567Z,2.90
2023-05-12T10:09:35.350Z,2.70
2023-05-12T10:12:03.172Z,2.80
2023-05-12T10:14:29.994Z,2.60
2023-05-12T10:16:56.859Z,3.40
2023-05-12T10:19:23.754Z,2.80
2023-05-12T10:21:50.536Z,2.90
2023-05-12T10:24:17.510Z,2.60
2023-05-12T10:26:44.854Z,2.50
2023-05-12T10:29:12.524Z,3.20
2023-05-12T10:31:39.332Z,2.50
2023-05-12T10:34:06.931Z,2.80
2023-05-12T10:36:47.517Z,3.00
2023-05-12T10:39:15.674Z,2.90
2023-05-12T10:41:42.913Z,2.80
2023-05-12T10:44:12.560Z,3.00
2023-05-12T10:46:39.373Z,2.90
2023-05-12T10:49:06.099Z,3.40
2023-05-12T10:51:34.478Z,2.90
2023-05-12T10:54:03.943Z,2.90
2023-05-12T10:56:32.005Z,2.70
2023-05-12T10:59:13.108Z,3.10
2023-05-12T11:01:41.672Z,2.80
2023-05-12T11:04:16.864Z,2.90
2023-05-12T11:06:45.042Z,3.20
2023-05-12T11:09:13.291Z,2.90
2023-05-12T11:11:40.685Z,2.90
2023-05-12T11:14:08.021Z,2.90
2023-05-12T11:16:34.845Z,3.00
2023-05-12T11:22:23.742Z,2.80
2023-05-12T11:24:52.172Z,2.80
2023-05-12T11:27:19.983Z,2.60
2023-05-12T11:29:58.572Z,2.80
2023-05-12T11:32:25.317Z,2.60
2023-05-12T11:34:52.384Z,2.80
2023-05-12T11:37:20.422Z,2.60
2023-05-12T11:39:47.464Z,3.10
2023-05-12T11:42:15.117Z,3.20
2023-05-12T11:44:47.805Z,2.40
2023-05-12T11:47:15.536Z,3.10
2023-05-12T11:49:49.996Z,2.70
2023-05-12T11:52:17.839Z,2.40
2023-05-12T11:54:50.185Z,2.60
2023-05-12T12:00:00.900Z,2.70
2023-05-12T12:02:28.229Z,2.80
2023-05-12T12:04:55.353Z,2.90
2023-05-12T12:07:32.310Z,2.80
2023-05-12T12:10:10.130Z,2.70
2023-05-12T12:12:38.415Z,3.10
2023-05-12T12:15:05.926Z,2.70
2023-05-12T12:17:32.637Z,2.90
2023-05-12T12:19:59.506Z,2.80
2023-05-12T12:22:26.440Z,2.40
2023-05-12T12:24:53.171Z,2.90
2023-05-12T12:27:19.779Z,3.20
2023-05-12T12:29:46.824Z,2.60
2023-05-12T12:32:13.484Z,3.20
2023-05-12T12:34:41.166Z,3.00
2023-05-12T12:37:07.750Z,2.60
2023-05-12T12:39:35.419Z,2.80
2023-05-12T12:42:02.609Z,3.10
2023-05-12T12:44:29.384Z,3.30
2023-05-12T12:46:56.026Z,2.90
2023-05-12T12:49:24.078Z,2.90
2023-05-12T12:51:51.010Z,2.60
2023-05-12T12:54:17.951Z,2.70
2023-05-12T12:56:44.586Z,2.60
2023-05-12T12:59:11.343Z,2.90
2023-05-12T13:01:38.107Z,2.70
2023-05-12T13:04:05.248Z,2.60
2023-05-12T13:06:32.020Z,2.60
2023-05-12T13:08:59.419Z,2.20
2023-05-12T13:11:26.066Z,2.60
2023-05-12T13:13:52.877Z,2.40
2023-05-12T13:16:19.701Z,2.30
2023-05-12T13:18:46.818Z,2.60
2023-05-12T13:21:13.465Z,2.50
2023-05-12T13:23:42.253Z,2.60
2023-05-12T13:26:08.921Z,2.70
2023-05-12T13:28:36.881Z,2.60
2023-05-12T13:31:05.643Z,2.90
2023-05-12T13:33:33.029Z,2.50
2023-05-12T13:35:59.951Z,2.40
2023-05-12T13:38:26.601Z,2.50
2023-05-12T13:40:54.425Z,2.50
2023-05-12T13:43:21.568Z,2.10
2023-05-12T13:45:48.259Z,2.70
2023-05-12T13:48:15.228Z,2.30
2023-05-12T13:50:44.589Z,2.60
2023-05-12T13:53:12.390Z,3.40
2023-05-12T13:55:48.599Z,2.70
2023-05-12T13:58:15.463Z,2.50
2023-05-12T14:00:42.670Z,2.60
2023-05-12T14:03:09.465Z,2.20
2023-05-12T14:05:37.541Z,2.50
2023-05-12T14:08:04.461Z,2.30
2023-05-12T14:10:33.097Z,2.70
2023-05-12T14:12:59.878Z,2.40
2023-05-12T14:15:39.947Z,2.30
2023-05-12T14:18:14.272Z,2.30
2023-05-12T14:20:41.480Z,2.20
2023-05-12T14:23:07.960Z,2.10
2023-05-12T14:25:34.784Z,2.60
2023-05-12T14:28:02.012Z,2.10
2023-05-12T14:30:29.543Z,2.30
2023-05-12T14:32:56.766Z,2.40
2023-05-12T14:35:26.932Z,2.20
2023-05-12T14:37:54.397Z,2.30
2023-05-12T14:40:21.133Z,1.90
2023-05-12T14:42:47.988Z,2.40
2023-05-12T14:45:15.055Z,2.10
2023-05-12T14:47:42.125Z,2.50
2023-05-12T14:50:09.544Z,2.70
2023-05-12T14:52:39.294Z,2.20
2023-05-12T14:55:11.791Z,1.90
2023-05-12T14:57:40.040Z,2.50
2023-05-12T15:00:10.165Z,2.40
2023-05-12T15:02:38.404Z,2.40
2023-05-12T15:05:06.761Z,2.10
2023-05-12T15:07:33.760Z,2.40
2023-05-12T15:10:00.404Z,2.00
2023-05-12T15:12:27.418Z,2.00
2023-05-12T15:14:56.386Z,2.00
2023-05-12T15:17:23.204Z,2.30
2023-05-12T15:19:49.792Z,2.70
2023-05-12T15:22:16.330Z,2.80
2023-05-12T15:24:43.127Z,3.10
2023-05-12T15:27:09.650Z,3.00
2023-05-12T15:29:38.157Z,2.90
2023-05-12T15:32:05.730Z,2.60
2023-05-12T15:34:34.431Z,2.90
2023-05-12T15:37:01.300Z,2.50
2023-05-12T15:39:28.172Z,2.30
2023-05-12T15:41:54.773Z,2.40
2023-05-12T15:44:21.435Z,2.40
2023-05-12T15:46:48.107Z,2.70
2023-05-12T15:49:14.813Z,2.30
2023-05-12T15:51:41.926Z,1.90
2023-05-12T15:54:09.527Z,2.10
2023-05-12T15:56:36.854Z,2.20
2023-05-12T15:59:04.608Z,2.40
2023-05-12T16:01:31.602Z,2.00
2023-05-12T16:03:58.946Z,2.00
2023-05-12T16:06:25.679Z,2.00
2023-05-12T16:08:52.563Z,2.00
2023-05-12T16:11:19.174Z,2.50
2023-05-12T16:13:45.798Z,2.20
2023-05-12T16:16:12.685Z,2.00
2023-05-12T16:18:39.629Z,2.10
2023-05-12T16:21:06.624Z,2.20
2023-05-12T16:23:33.282Z,1.90
2023-05-12T16:25:59.887Z,2.10
2023-05-12T16:28:26.637Z,2.10
2023-05-12T16:30:53.276Z,2.30
2023-05-12T16:33:19.827Z,1.70
2023-05-12T16:35:46.601Z,2.20
2023-05-12T16:38:13.281Z,2.10
2023-05-12T16:40:39.910Z,2.00
2023-05-12T16:43:06.481Z,2.00
2023-05-12T16:45:33.415Z,2.20
2023-05-12T16:48:01.117Z,2.00
2023-05-12T16:50:27.758Z,2.30
2023-05-12T16:52:54.252Z,2.10
2023-05-12T16:55:21.261Z,2.10
2023-05-12T16:57:48.491Z,1.80
2023-05-12T17:00:15.786Z,1.80
2023-05-12T17:02:42.935Z,1.90
2023-05-12T17:05:09.549Z,2.00
2023-05-12T17:07:37.478Z,2.00
2023-05-12T17:10:04.523Z,1.90
2023-05-12T17:12:31.766Z,2.40
2023-05-12T17:15:06.810Z,2.20
2023-05-12T17:17:35.248Z,2.50
2023-05-12T17:20:02.388Z,2.30
2023-05-12T17:22:31.484Z,2.40
2023-05-12T17:24:58.360Z,2.30
2023-05-12T17:27:25.906Z,2.90
2023-05-12T17:29:52.987Z,2.20
2023-05-12T17:32:20.024Z,2.10
2023-05-12T17:34:49.631Z,2.30
2023-05-12T17:37:16.921Z,2.20
2023-05-12T17:39:43.870Z,2.40
2023-05-12T17:42:10.505Z,2.40
2023-05-12T17:44:37.332Z,3.20
2023-05-12T17:47:04.400Z,2.30
2023-05-12T17:49:31.145Z,2.60
2023-05-12T17:51:57.917Z,2.70
2023-05-12T17:54:27.005Z,2.60
2023-05-12T17:56:53.875Z,2.40
2023-05-12T17:59:20.458Z,2.30
2023-05-12T18:01:47.362Z,2.10
2023-05-12T18:04:14.733Z,2.10
2023-05-12T18:06:41.387Z,2.60
2023-05-12T18:09:08.120Z,3.00
2023-05-12T18:11:34.961Z,2.70
2023-05-12T18:14:05.041Z,2.90
2023-05-12T18:16:32.771Z,2.80
2023-05-12T18:19:01.856Z,2.40
2023-05-12T18:21:28.714Z,2.70
2023-05-12T18:23:56.063Z,2.90
2023-05-12T18:26:23.579Z,2.50
2023-05-12T18:28:50.327Z,3.10
2023-05-12T18:31:19.194Z,2.50
2023-05-12T18:33:47.864Z,2.80
2023-05-12T18:36:15.739Z,3.10
2023-05-12T18:38:42.609Z,3.40
2023-05-12T18:41:10.741Z,3.60
2023-05-12T18:43:37.723Z,3.90
2023-05-12T18:46:05.537Z,4.20
2023-05-12T18:48:33.433Z,4.70
2023-05-12T18:51:00.696Z,4.80
2023-05-12T18:53:29.748Z,3.50
2023-05-12T18:55:56.660Z,3.70
2023-05-12T18:58:23.322Z,4.20
2023-05-12T19:00:50.199Z,3.50
2023-05-12T19:03:16.981Z,4.20
2023-05-12T19:05:45.636Z,4.20
2023-05-12T19:08:13.008Z,4.30
2023-05-12T19:10:40.347Z,4.60
2023-05-12T19:13:08.106Z,4.20
2023-05-12T19:15:35.649Z,4.30
2023-05-12T19:18:02.955Z,4.10
2023-05-12T19:20:30.549Z,3.70
2023-05-12T19:22:59.071Z,4.20
2023-05-12T19:25:25.963Z,4.20
2023-05-12T19:27:53.391Z,3.60
2023-05-12T19:30:20.609Z,3.80
2023-05-12T19:32:47.480Z,4.00
2023-05-12T19:35:16.040Z,3.70
2023-05-12T19:37:43.191Z,4.10
2023-05-12T19:40:10.176Z,4.10
2023-05-12T19:42:38.045Z,4.30
2023-05-12T19:45:05.699Z,3.70
2023-05-12T19:47:33.694Z,3.70
2023-05-12T19:50:00.486Z,3.80
2023-05-12T19:52:29.994Z,3.70
2023-05-12T19:54:56.693Z,4.00
2023-05-12T19:57:23.320Z,3.70
2023-05-12T19:59:50.270Z,3.80
2023-05-12T20:02:17.104Z,4.30
2023-05-12T20:04:43.950Z,3.40
2023-05-12T20:07:10.621Z,3.70
2023-05-12T20:09:37.299Z,3.00
2023-05-12T20:12:07.618Z,3.50
2023-05-12T20:14:35.584Z,2.70
2023-05-12T20:17:05.088Z,2.80
2023-05-12T20:19:32.787Z,3.30
2023-05-12T20:21:59.742Z,2.70
2023-05-12T20:24:26.674Z,3.20
2023-05-12T20:26:53.274Z,3.90
2023-05-12T20:29:22.667Z,3.80
2023-05-12T20:31:50.214Z,3.90
2023-05-12T20:34:17.337Z,3.60
2023-05-12T20:36:44.185Z,3.90
2023-05-12T20:39:11.344Z,5.90
2023-05-12T20:41:38.405Z,4.00
2023-05-12T20:44:05.433Z,3.30
2023-05-12T20:46:34.447Z,3.10
2023-05-12T20:49:02.725Z,3.80
2023-05-12T20:51:29.331Z,4.20
2023-05-12T20:53:55.992Z,3.50
2023-05-12T20:56:22.634Z,3.40
2023-05-12T20:58:49.684Z,4.40
2023-05-12T21:01:16.612Z,3.90
2023-05-12T21:03:43.241Z,3.50
2023-05-12T21:06:11.504Z,4.20
2023-05-12T21:08:38.776Z,3.50
2023-05-12T21:11:18.087Z,3.80
2023-05-12T21:13:46.375Z,4.30
2023-05-12T21:16:14.418Z,4.00
2023-05-12T21:18:42.288Z,3.70
2023-05-12T21:21:09.026Z,4.40
2023-05-12T21:23:36.853Z,4.30
2023-05-12T21:26:04.382Z,4.10
2023-05-12T21:28:31.106Z,3.40
2023-05-12T21:30:57.684Z,4.10
2023-05-12T21:33:24.383Z,3.60
2023-05-12T21:35:51.043Z,3.80
2023-05-12T21:38:18.804Z,3.70
2023-05-12T21:40:51.207Z,3.70
2023-05-12T21:43:17.785Z,3.40
2023-05-12T21:45:44.340Z,3.50
2023-05-12T21:48:11.826Z,3.70
2023-05-12T21:50:38.570Z,3.40
2023-05-12T21:53:05.205Z,3.50
2023-05-12T21:55:32.630Z,3.70
2023-05-12T21:57:59.412Z,3.60
2023-05-12T22:00:26.288Z,3.50
2023-05-12T22:02:53.008Z,4.00
2023-05-12T22:05:19.666Z,4.20
2023-05-12T22:07:46.371Z,3.80
2023-05-12T22:10:13.105Z,3.90
2023-05-12T22:12:40.251Z,3.70
2023-05-12T22:15:07.268Z,4.20
2023-05-12T22:17:34.103Z,3.80
2023-05-12T22:20:00.888Z,4.10
2023-05-12T22:22:27.430Z,4.10
2023-05-12T22:24:54.043Z,4.10
2023-05-12T22:27:21.793Z,3.90
2023-05-12T22:29:49.055Z,3.90
2023-05-12T22:32:15.681Z,4.10
2023-05-12T22:34:42.241Z,4.20
2023-05-12T22:37:08.955Z,4.00
2023-05-12T22:39:35.660Z,4.00
2023-05-12T22:42:02.676Z,4.50
2023-05-12T22:44:30.262Z,4.50
2023-05-12T22:46:57.264Z,5.00
2023-05-12T22:49:23.982Z,5.10
2023-05-12T22:51:50.674Z,4.40
2023-05-12T22:54:17.586Z,5.00
2023-05-12T22:56:44.231Z,4.20
2023-05-12T22:59:10.851Z,4.00
2023-05-12T23:01:37.456Z,4.50
2023-05-12T23:04:04.320Z,4.00
2023-05-12T23:06:31.947Z,3.40
2023-05-12T23:08:58.577Z,4.30
2023-05-12T23:11:25.204Z,4.60
2023-05-12T23:13:52.014Z,4.10
2023-05-12T23:16:18.789Z,4.00
2023-05-12T23:18:45.569Z,4.10
2023-05-12T23:21:12.224Z,3.90
2023-05-12T23:23:38.795Z,4.00
2023-05-12T23:26:05.404Z,4.00
2023-05-12T23:28:32.726Z,4.30
2023-05-12T23:30:59.345Z,4.40
2023-05-12T23:33:26.499Z,4.70
2023-05-12T23:35:53.086Z,4.60
2023-05-12T23:39:41.009Z,5.30
2023-05-12T23:42:07.854Z,5.10
2023-05-12T23:44:34.564Z,5.10
2023-05-12T23:47:01.451Z,4.90
2023-05-12T23:49:28.252Z,5.60
2023-05-12T23:51:55.070Z,5.10
2023-05-12T23:54:21.904Z,4.80
2023-05-12T23:56:48.632Z,4.80
2023-05-12T23:59:15.451Z,4.40
